createdAt,value
2023-01-01T00:03:19.954Z,80.10
2023-01-01T00:06:38.819Z,39.17
2023-01-01T00:12:52.858Z,35.10
2023-01-01T00:15:30.340Z,33.33
2023-01-01T00:18:14.462Z,37.43
2023-01-01T00:20:52.624Z,31.80
2023-01-01T00:23:46.607Z,28.60
2023-01-01T00:29:34.892Z,46.23
2023-01-01T00:32:16.412Z,103.07
2023-01-01T00:34:47.677Z,43.60
2023-01-01T00:37:32.638Z,60.20
2023-01-01T00:40:07.560Z,115.53
2023-01-01T00:43:09.404Z,61.00
2023-01-01T00:45:57.168Z,56.33
2023-01-01T00:51:21.722Z,54.53
2023-01-01T00:54:16.825Z,61.87
2023-01-01T00:56:57.796Z,89.43
2023-01-01T00:59:50.983Z,58.80
2023-01-01T01:02:39.910Z,82.03
2023-01-01T01:05:17.080Z,76.03
2023-01-01T01:07:56.872Z,50.63
2023-01-01T01:10:26.852Z,72.03
2023-01-01T01:15:56.081Z,50.27
2023-01-01T01:18:30.355Z,49.63
2023-01-01T01:21:16.257Z,44.60
2023-01-01T01:23:56.163Z,45.27
2023-01-01T01:26:46.972Z,46.93
2023-01-01T01:29:33.355Z,45.80
2023-01-01T01:32:10.625Z,45.50
2023-01-01T01:34:49.305Z,48.13
2023-01-01T01:37:25.235Z,55.93
2023-01-01T01:40:01.717Z,48.47
2023-01-01T01:42:50.257Z,41.80
2023-01-01T01:48:28.351Z,44.13
2023-01-01T01:51:07.810Z,45.23
2023-01-01T01:53:45.930Z,44.17
2023-01-01T01:56:23.290Z,60.87
2023-01-01T01:58:57.687Z,52.43
2023-01-01T02:01:41.491Z,44.53
2023-01-01T02:04:21.357Z,50.93
2023-01-01T02:07:04.518Z,51.30
2023-01-01T02:09:47.344Z,51.27
2023-01-01T02:15:21.735Z,45.37
2023-01-01T02:18:11.720Z,39.73
2023-01-01T02:21:12.189Z,39.13
2023-01-01T02:24:22.955Z,44.00
2023-01-01T02:27:24.381Z,42.07
2023-01-01T02:30:41.201Z,42.77
2023-01-01T02:33:38.613Z,45.37
2023-01-01T02:36:28.749Z,38.30
2023-01-01T02:39:08.418Z,44.10
2023-01-01T02:41:47.385Z,49.27
2023-01-01T02:44:22.403Z,41.43
2023-01-01T02:50:30.128Z,29.83
2023-01-01T02:53:31.079Z,34.13
2023-01-01T02:56:25.232Z,27.33
2023-01-01T02:59:31.863Z,33.60
2023-01-01T03:02:24.889Z,26.53
2023-01-01T03:05:26.859Z,25.20
2023-01-01T03:08:26.543Z,26.70
2023-01-01T03:11:14.553Z,26.10
2023-01-01T03:13:55.892Z,18.07
2023-01-01T03:16:34.952Z,20.17
2023-01-01T03:19:16.427Z,22.77
2023-01-01T03:22:10.500Z,18.77
2023-01-01T03:24:58.789Z,21.87
2023-01-01T03:27:49.916Z,21.03
2023-01-01T03:30:42.142Z,17.23
2023-01-01T03:33:50.731Z,15.03
2023-01-01T03:36:47.724Z,20.30
2023-01-01T03:39:38.831Z,16.80
2023-01-01T03:42:28.797Z,15.33
2023-01-01T03:45:12.228Z,20.80
2023-01-01T03:47:45.399Z,15.97
2023-01-01T03:51:00.556Z,19.07
2023-01-01T03:54:10.827Z,40.83
2023-01-01T03:57:04.142Z,23.20
2023-01-01T04:02:55.096Z,12.27
2023-01-01T04:05:31.967Z,9.30
2023-01-01T04:08:22.698Z,10.27
2023-01-01T04:11:38.695Z,16.87
2023-01-01T04:14:23.009Z,13.17
2023-01-01T04:16:56.941Z,11.00
2023-01-01T04:22:42.947Z,11.73
2023-01-01T04:25:20.496Z,19.47
2023-01-01T04:28:22.448Z,15.70
2023-01-01T04:33:45.568Z,12.43
2023-01-01T04:36:36.013Z,14.57
2023-01-01T04:39:12.043Z,12.87
2023-01-01T04:42:05.519Z,14.43
2023-01-01T04:45:00.694Z,15.37
2023-01-01T04:47:41.195Z,15.13
2023-01-01T04:50:17.288Z,13.20
2023-01-01T04:53:10.581Z,12.43
2023-01-01T04:55:41.752Z,12.97
2023-01-01T04:58:26.961Z,13.03
2023-01-01T05:01:10.293Z,16.77
2023-01-01T05:04:02.738Z,12.07
2023-01-01T05:09:46.915Z,11.37
2023-01-01T05:17:11.682Z,6.40
2023-01-01T05:19:58.225Z,10.10
2023-01-01T05:22:32.959Z,12.10
2023-01-01T05:25:11.410Z,8.23
2023-01-01T05:27:51.675Z,9.87
2023-01-01T05:30:29.992Z,9.13
2023-01-01T05:33:31.295Z,10.97
2023-01-01T05:36:13.107Z,9.77
2023-01-01T05:39:01.967Z,9.33
2023-01-01T05:41:51.972Z,6.77
2023-01-01T05:44:28.497Z,8.10
2023-01-01T05:52:57.415Z,6.80
2023-01-01T05:55:39.442Z,7.67
2023-01-01T05:58:42.073Z,7.97
2023-01-01T06:01:27.026Z,9.87
2023-01-01T06:04:06.406Z,9.27
2023-01-01T06:06:44.853Z,6.13
2023-01-01T06:09:19.569Z,5.20
2023-01-01T06:11:59.247Z,7.53
2023-01-01T06:14:46.305Z,6.23
2023-01-01T06:17:19.951Z,6.00
2023-01-01T06:20:02.742Z,6.80
2023-01-01T06:22:44.806Z,8.77
2023-01-01T06:25:36.823Z,4.70
2023-01-01T06:28:13.902Z,5.53
2023-01-01T06:30:48.986Z,4.80
2023-01-01T06:33:21.424Z,5.47
2023-01-01T06:39:05.619Z,4.20
2023-01-01T06:41:56.166Z,5.40
2023-01-01T06:44:33.109Z,4.07
2023-01-01T06:47:04.964Z,3.37
2023-01-01T06:49:46.438Z,6.53
2023-01-01T06:52:24.674Z,7.17
2023-01-01T06:55:04.001Z,2.53
2023-01-01T06:58:01.007Z,4.60
2023-01-01T07:00:37.722Z,8.03
2023-01-01T07:03:14.051Z,2.97
2023-01-01T07:06:02.140Z,3.20
2023-01-01T07:08:37.055Z,5.87
2023-01-01T07:11:24.206Z,4.27
2023-01-01T07:14:01.068Z,4.30
2023-01-01T07:16:39.857Z,4.97
2023-01-01T07:19:18.963Z,3.97
2023-01-01T07:22:04.175Z,5.53
2023-01-01T07:27:33.112Z,8.10
2023-01-01T07:30:10.370Z,5.17
2023-01-01T07:32:55.289Z,8.57
2023-01-01T07:35:46.382Z,5.47
2023-01-01T07:38:17.917Z,6.37
2023-01-01T07:40:50.994Z,5.33
2023-01-01T07:43:39.000Z,7.00
2023-01-01T07:46:37.441Z,8.80
2023-01-01T07:49:23.625Z,8.90
2023-01-01T07:52:04.626Z,5.23
2023-01-01T07:57:41.761Z,6.43
2023-01-01T08:00:24.038Z,7.50
2023-01-01T08:03:05.166Z,7.57
2023-01-01T08:05:50.704Z,11.67
2023-01-01T08:08:35.044Z,10.17
2023-01-01T08:11:07.999Z,9.20
2023-01-01T08:13:45.463Z,7.97
2023-01-01T08:16:40.517Z,8.90
2023-01-01T08:19:35.993Z,9.00
2023-01-01T08:22:23.278Z,7.43
2023-01-01T08:24:59.477Z,6.63
2023-01-01T08:27:37.382Z,5.30
2023-01-01T08:33:37.183Z,6.67
2023-01-01T08:36:40.288Z,8.53
2023-01-01T08:39:27.422Z,10.23
2023-01-01T08:42:15.315Z,10.07
2023-01-01T08:44:55.749Z,9.83
2023-01-01T08:50:36.935Z,11.17
2023-01-01T08:53:14.358Z,9.77
2023-01-01T08:55:47.805Z,12.17
2023-01-01T08:58:36.075Z,8.23
2023-01-01T09:01:09.338Z,14.93
2023-01-01T09:03:58.765Z,12.20
2023-01-01T09:07:03.556Z,14.30
2023-01-01T09:09:46.563Z,9.33
2023-01-01T09:12:22.537Z,9.33
2023-01-01T09:14:56.867Z,8.83
2023-01-01T09:17:30.460Z,5.73
2023-01-01T09:23:22.875Z,11.67
2023-01-01T09:28:58.873Z,8.23
2023-01-01T09:31:42.881Z,10.43
2023-01-01T09:37:07.381Z,12.87
2023-01-01T09:39:54.088Z,10.57
2023-01-01T09:42:44.016Z,10.97
2023-01-01T09:45:36.699Z,8.83
2023-01-01T09:48:22.108Z,14.80
2023-01-01T09:51:01.833Z,14.93
2023-01-01T09:53:41.686Z,10.77
2023-01-01T09:59:31.190Z,10.73
2023-01-01T10:02:59.097Z,11.17
2023-01-01T10:05:57.968Z,8.70
2023-01-01T10:08:51.997Z,16.17
2023-01-01T10:11:34.081Z,11.43
2023-01-01T10:17:25.713Z,9.60
2023-01-01T10:23:13.960Z,10.87
2023-01-01T10:25:53.710Z,11.50
2023-01-01T10:28:39.747Z,14.67
2023-01-01T10:31:44.261Z,9.53
2023-01-01T10:37:18.899Z,13.53
2023-01-01T10:40:21.563Z,10.00
2023-01-01T10:43:01.440Z,9.33
2023-01-01T10:45:38.634Z,10.33
2023-01-01T10:48:31.894Z,10.03
2023-01-01T10:51:34.147Z,10.30
2023-01-01T10:54:14.267Z,9.23
2023-01-01T10:56:52.391Z,10.23
2023-01-01T11:00:06.522Z,8.93
2023-01-01T11:02:54.981Z,10.67
2023-01-01T11:05:26.335Z,8.63
2023-01-01T11:11:14.795Z,6.73
2023-01-01T11:14:03.110Z,6.43
2023-01-01T11:16:43.489Z,10.50
2023-01-01T11:19:38.283Z,6.97
2023-01-01T11:22:22.919Z,11.27
2023-01-01T11:25:10.595Z,6.67
2023-01-01T11:27:41.174Z,8.33
2023-01-01T11:30:35.148Z,9.60
2023-01-01T11:33:21.709Z,14.10
2023-01-01T11:36:12.421Z,10.90
2023-01-01T11:38:55.593Z,12.43
2023-01-01T11:42:08.939Z,6.60
2023-01-01T11:45:00.619Z,8.93
2023-01-01T11:47:43.797Z,11.43
2023-01-01T11:51:03.435Z,7.77
2023-01-01T11:53:44.244Z,14.27
2023-01-01T11:56:36.293Z,16.33
2023-01-01T11:59:34.890Z,12.53
2023-01-01T12:02:17.996Z,13.37
2023-01-01T12:05:18.338Z,7.67
2023-01-01T12:08:04.943Z,6.80
2023-01-01T12:10:57.398Z,17.20
2023-01-01T12:13:49.025Z,9.53
2023-01-01T12:16:31.590Z,8.40
2023-01-01T12:19:39.030Z,9.90
2023-01-01T12:22:32.309Z,9.07
2023-01-01T12:28:22.260Z,11.63
2023-01-01T12:31:05.784Z,10.87
2023-01-01T12:34:12.188Z,12.53
2023-01-01T12:37:05.288Z,13.73
2023-01-01T12:41:02.967Z,14.97
2023-01-01T12:43:50.159Z,12.13
2023-01-01T12:47:02.295Z,11.10
2023-01-01T12:50:51.455Z,10.47
2023-01-01T12:53:43.469Z,14.30
2023-01-01T12:56:34.495Z,7.47
2023-01-01T12:59:25.220Z,9.90
2023-01-01T13:02:08.336Z,12.47
2023-01-01T13:05:00.035Z,8.73
2023-01-01T13:08:01.846Z,7.53
2023-01-01T13:10:51.339Z,8.97
2023-01-01T13:13:37.566Z,12.87
2023-01-01T13:19:11.910Z,15.70
2023-01-01T13:21:56.561Z,14.33
2023-01-01T13:24:34.678Z,13.43
2023-01-01T13:27:12.617Z,10.97
2023-01-01T13:29:58.822Z,12.37
2023-01-01T13:33:31.123Z,15.27
2023-01-01T13:36:59.419Z,16.10
2023-01-01T13:40:02.629Z,9.20
2023-01-01T13:46:13.373Z,8.93
2023-01-01T13:49:26.572Z,12.53
2023-01-01T13:52:55.236Z,8.40
2023-01-01T13:56:07.236Z,11.87
2023-01-01T14:00:16.186Z,15.13
2023-01-01T14:02:55.132Z,12.47
2023-01-01T14:05:39.280Z,12.97
2023-01-01T14:11:42.777Z,12.40
2023-01-01T14:14:24.716Z,11.60
2023-01-01T14:17:05.774Z,12.03
2023-01-01T14:20:05.021Z,12.80
2023-01-01T14:22:49.464Z,9.47
2023-01-01T14:25:30.703Z,15.17
2023-01-01T14:28:08.910Z,10.83
2023-01-01T14:31:10.900Z,13.33
2023-01-01T14:34:09.952Z,13.57
2023-01-01T14:37:07.081Z,16.77
2023-01-01T14:40:01.601Z,10.80
2023-01-01T14:42:53.887Z,17.47
2023-01-01T14:45:41.440Z,10.07
2023-01-01T14:48:22.481Z,11.33
2023-01-01T14:54:05.507Z,15.83
2023-01-01T14:56:45.249Z,15.53
2023-01-01T14:59:48.635Z,12.33
2023-01-01T15:02:40.545Z,15.63
2023-01-01T15:06:07.691Z,9.60
2023-01-01T15:08:42.902Z,12.67
2023-01-01T15:11:32.796Z,13.87
2023-01-01T15:14:15.440Z,11.33
2023-01-01T15:17:03.109Z,15.80
2023-01-01T15:19:42.458Z,11.80
2023-01-01T15:22:28.856Z,16.03
2023-01-01T15:25:10.899Z,13.03
2023-01-01T15:27:44.416Z,11.80
2023-01-01T15:30:40.960Z,14.33
2023-01-01T15:33:19.935Z,15.13
2023-01-01T15:36:03.420Z,10.27
2023-01-01T15:38:59.004Z,16.57
2023-01-01T15:41:55.201Z,13.37
2023-01-01T15:47:31.847Z,11.10
2023-01-01T15:50:27.252Z,11.63
2023-01-01T15:53:11.755Z,12.33
2023-01-01T15:56:34.738Z,15.43
2023-01-01T15:59:45.730Z,17.93
2023-01-01T16:02:59.089Z,14.73
2023-01-01T16:05:49.681Z,8.73
2023-01-01T16:08:29.827Z,15.53
2023-01-01T16:11:19.028Z,13.03
2023-01-01T16:13:59.734Z,22.63
2023-01-01T16:19:38.025Z,15.87
2023-01-01T16:25:14.220Z,15.40
2023-01-01T16:30:59.710Z,20.67
2023-01-01T16:36:51.024Z,20.43
2023-01-01T16:39:27.856Z,17.33
2023-01-01T16:42:07.384Z,37.03
2023-01-01T16:45:01.621Z,51.93
2023-01-01T16:48:01.492Z,56.40
2023-01-01T16:50:48.292Z,59.97
2023-01-01T16:53:27.960Z,48.67
2023-01-01T16:56:23.786Z,39.33
2023-01-01T16:59:03.269Z,23.40
2023-01-01T17:01:37.655Z,30.57
2023-01-01T17:04:12.776Z,21.13
2023-01-01T17:09:33.640Z,22.83
2023-01-01T17:12:25.176Z,18.30
2023-01-01T17:20:56.298Z,16.27
2023-01-01T17:23:52.800Z,16.97
2023-01-01T17:26:42.222Z,16.57
2023-01-01T17:29:19.902Z,17.30
2023-01-01T17:32:26.411Z,12.80
2023-01-01T17:35:11.687Z,14.03
2023-01-01T17:37:53.122Z,14.00
2023-01-01T17:40:33.526Z,15.47
2023-01-01T17:43:35.101Z,15.70
2023-01-01T17:46:27.065Z,18.43
2023-01-01T17:49:12.542Z,17.27
2023-01-01T17:52:00.592Z,13.83
2023-01-01T17:54:34.114Z,16.73
2023-01-01T17:57:10.163Z,14.63
2023-01-01T17:59:46.943Z,17.27
2023-01-01T18:02:31.305Z,75.80
2023-01-01T18:05:16.265Z,18.13
2023-01-01T18:07:54.909Z,14.40
2023-01-01T18:10:36.484Z,14.23
2023-01-01T18:13:08.326Z,14.77
2023-01-01T18:15:51.138Z,16.83
2023-01-01T18:18:34.957Z,12.37
2023-01-01T18:21:32.632Z,13.50
2023-01-01T18:24:03.771Z,11.87
2023-01-01T18:27:01.716Z,13.50
2023-01-01T18:29:55.769Z,14.73
2023-01-01T18:32:27.583Z,11.63
2023-01-01T18:35:14.422Z,16.90
2023-01-01T18:37:52.251Z,16.57
2023-01-01T18:43:51.548Z,12.10
2023-01-01T18:46:30.636Z,13.27
2023-01-01T18:49:16.863Z,16.53
2023-01-01T18:51:51.221Z,15.97
2023-01-01T18:54:25.785Z,15.20
2023-01-01T18:57:18.697Z,19.83
2023-01-01T19:00:39.806Z,14.57
2023-01-01T19:03:21.130Z,20.50
2023-01-01T19:06:01.390Z,15.57
2023-01-01T19:08:36.191Z,18.87
2023-01-01T19:14:29.291Z,17.77
2023-01-01T19:17:25.594Z,15.83
2023-01-01T19:20:17.788Z,17.10
2023-01-01T19:22:49.957Z,14.93
2023-01-01T19:29:04.057Z,14.80
2023-01-01T19:31:42.075Z,17.40
2023-01-01T19:34:16.238Z,19.53
2023-01-01T19:36:55.297Z,20.67
2023-01-01T19:39:43.428Z,26.17
2023-01-01T19:42:31.141Z,19.77
2023-01-01T19:45:38.804Z,19.53
2023-01-01T19:48:21.489Z,41.50
2023-01-01T19:51:16.662Z,24.43
2023-01-01T19:53:58.857Z,17.83
2023-01-01T19:56:33.962Z,17.53
2023-01-01T19:59:13.550Z,13.67
2023-01-01T20:02:17.652Z,14.63
2023-01-01T20:05:00.150Z,17.67
2023-01-01T20:07:32.569Z,17.67
2023-01-01T20:10:19.993Z,13.47
2023-01-01T20:13:12.267Z,15.03
2023-01-01T20:15:46.897Z,14.03
2023-01-01T20:21:36.948Z,16.33
2023-01-01T20:24:13.629Z,15.87
2023-01-01T20:27:00.453Z,15.93
2023-01-01T20:29:39.208Z,16.40
2023-01-01T20:32:33.226Z,12.83
2023-01-01T20:35:16.141Z,16.60
2023-01-01T20:37:50.406Z,12.40
2023-01-01T20:40:23.127Z,12.57
2023-01-01T20:43:03.481Z,14.30
2023-01-01T20:45:46.568Z,11.60
2023-01-01T20:48:20.112Z,12.53
2023-01-01T20:50:55.987Z,13.00
2023-01-01T20:53:57.255Z,18.13
2023-01-01T20:59:36.265Z,10.60
2023-01-01T21:02:11.779Z,12.60
2023-01-01T21:05:07.021Z,11.63
2023-01-01T21:08:30.707Z,13.70
2023-01-01T21:11:12.215Z,13.00
2023-01-01T21:13:43.958Z,11.17
2023-01-01T21:16:59.624Z,12.70
2023-01-01T21:19:38.561Z,11.27
2023-01-01T21:22:20.816Z,8.47
2023-01-01T21:25:24.008Z,9.97
2023-01-01T21:28:22.113Z,11.93
2023-01-01T21:31:05.864Z,10.07
2023-01-01T21:33:54.181Z,8.80
2023-01-01T21:36:42.695Z,10.57
2023-01-01T21:39:18.947Z,12.90
2023-01-01T21:42:48.728Z,10.93
2023-01-01T21:45:40.039Z,10.00
2023-01-01T21:48:17.081Z,9.87
2023-01-01T21:51:09.904Z,8.17
2023-01-01T21:53:58.875Z,12.50
2023-01-01T21:56:48.257Z,8.87
2023-01-01T21:59:51.768Z,12.13
2023-01-01T22:03:56.650Z,11.93
2023-01-01T22:06:58.282Z,9.07
2023-01-01T22:09:33.249Z,10.17
2023-01-01T22:12:20.084Z,11.53
2023-01-01T22:14:55.588Z,10.63
2023-01-01T22:17:35.036Z,10.60
2023-01-01T22:20:21.828Z,13.60
2023-01-01T22:22:53.879Z,11.60
2023-01-01T22:25:31.011Z,18.50
2023-01-01T22:28:00.783Z,13.30
2023-01-01T22:30:46.309Z,13.40
2023-01-01T22:33:36.606Z,11.73
2023-01-01T22:36:14.431Z,13.00
2023-01-01T22:38:57.399Z,15.27
2023-01-01T22:41:27.323Z,13.23
2023-01-01T22:44:05.333Z,18.47
2023-01-01T22:46:41.371Z,15.97
2023-01-01T22:49:27.991Z,14.00
2023-01-01T22:52:04.278Z,20.30
2023-01-01T22:54:34.053Z,17.40
2023-01-01T22:57:04.013Z,16.53
2023-01-01T22:59:35.169Z,18.87
2023-01-01T23:02:08.374Z,19.30
2023-01-01T23:04:47.816Z,18.37
2023-01-01T23:07:19.297Z,18.03
2023-01-01T23:09:47.961Z,16.60
2023-01-01T23:12:17.602Z,20.23
2023-01-01T23:15:04.258Z,22.13
2023-01-01T23:17:40.464Z,22.90
2023-01-01T23:22:59.781Z,19.23
2023-01-01T23:28:17.728Z,21.33
2023-01-01T23:30:46.876Z,21.30
2023-01-01T23:33:23.721Z,21.13
2023-01-01T23:38:41.196Z,20.57
2023-01-01T23:41:24.565Z,19.23
2023-01-01T23:43:53.054Z,21.37
2023-01-01T23:49:09.818Z,21.60
2023-01-01T23:51:41.006Z,23.10
2023-01-01T23:54:09.486Z,25.47
2023-01-01T23:56:38.222Z,28.00
2023-01-01T23:59:13.537Z,24.47
